Hauptseite
METAR-TAF:

METAR-TAF

Flughäfen :

Dschidda, Saudi-Arabien

Internationaler König-Abd-al-Aziz-Flughafen

Breite: 21-42N, Länge: 039-11E, Höhe: 15 m

Beobachtung

Neuester Wetterbericht von vor 24 Minuten, um 18:00 UTC
Wind 14 kt aus Süd/Südost
Temperatur 33°C
Luftfeuchtigkeit 49%
Luftdruck 1004 hPa
Sichtweite 10 km oder mehr
keine Wolken unter 1500 m und keine Kumulonimbus oder Gewitterwolken

METAR: OEJN 221800Z 16014KT CAVOK 33/21 Q1004 NOSIG

Zeit: 21:24 (18:24 UTC)

Prognose

Neuester Wetterbericht von vor 1 Stunde und 24 Minuten, um 17:00 UTC
Gültige Prognose vom 22 um 18 UTC bis 23 um 24 UTC
Wind 10 kt aus Nord/Nordwest
Sichtweite: 7000 m
Leicht bewölkt in der Höhe von 4000 ft
Übergehend zu
vom 23 um 06 UTC bis 23 um 08 UTC
Wind 5 kt aus Nord, Böen bis zu 15 kt

TAF: OEJN 221700Z 2218/2324 33010KT 7000 FEW040 BECMG 2306/2308 36005G15KT

Wetterbeobachtungen und Prognosen von mehr als 4000 Flughäfen (METAR und TAF Bericht).

Die verfügbaren Stationen werden durch gelbe und rote Markierungen auf der Karte dargestellt.

Führen Sie die Maus auf sie, um den Namen der Station zu sehen.

Darauf klicken, um die Beobachtung von Wetterbeobachtungen und Prognosen zu sehen.

Um die Karte zu ändern : klicken Sie auf den grünen Tasten mit einem schwarzen Kreuz Zum Vergrößern, auf den grünen Button mit einem Gedankenstrich zu verkleinern, oder auf die grünen Pfeile für benachbarte Karten.


METAR-TAF: